sensor_id;sensor_type;location;lat;lon;timestamp;P1;durP1;ratioP1;P2;durP2;ratioP2
14300;SDS011;7234;59.306;18.024;2022-12-24T00:00:32;1.90;;;1.10;;
14300;SDS011;7234;59.306;18.024;2022-12-24T00:03:00;1.13;;;0.87;;
14300;SDS011;7234;59.306;18.024;2022-12-24T00:05:29;0.87;;;0.80;;
14300;SDS011;7234;59.306;18.024;2022-12-24T00:07:56;3.87;;;1.13;;
14300;SDS011;7234;59.306;18.024;2022-12-24T00:10:24;0.93;;;0.90;;
14300;SDS011;7234;59.306;18.024;2022-12-24T00:12:51;0.70;;;0.70;;
14300;SDS011;7234;59.306;18.024;2022-12-24T00:15:18;2.83;;;0.90;;
14300;SDS011;7234;59.306;18.024;2022-12-24T00:17:46;1.10;;;0.90;;
14300;SDS011;7234;59.306;18.024;2022-12-24T00:20:13;2.23;;;0.90;;
14300;SDS011;7234;59.306;18.024;2022-12-24T00:22:42;2.80;;;1.20;;
14300;SDS011;7234;59.306;18.024;2022-12-24T00:25:09;2.53;;;0.90;;
14300;SDS011;7234;59.306;18.024;2022-12-24T00:27:37;3.07;;;1.20;;
14300;SDS011;7234;59.306;18.024;2022-12-24T00:30:04;1.03;;;0.80;;
14300;SDS011;7234;59.306;18.024;2022-12-24T00:32:32;3.37;;;1.00;;
14300;SDS011;7234;59.306;18.024;2022-12-24T00:34:59;1.50;;;0.87;;
14300;SDS011;7234;59.306;18.024;2022-12-24T00:37:27;1.97;;;0.80;;
14300;SDS011;7234;59.306;18.024;2022-12-24T00:40:01;2.23;;;0.93;;
14300;SDS011;7234;59.306;18.024;2022-12-24T00:42:29;2.73;;;0.97;;
14300;SDS011;7234;59.306;18.024;2022-12-24T00:44:56;1.50;;;1.10;;
14300;SDS011;7234;59.306;18.024;2022-12-24T00:47:24;1.73;;;1.10;;
14300;SDS011;7234;59.306;18.024;2022-12-24T00:49:51;1.73;;;0.83;;
14300;SDS011;7234;59.306;18.024;2022-12-24T00:52:19;3.03;;;0.80;;
14300;SDS011;7234;59.306;18.024;2022-12-24T00:54:46;1.33;;;0.80;;
14300;SDS011;7234;59.306;18.024;2022-12-24T00:57:16;1.97;;;1.07;;
14300;SDS011;7234;59.306;18.024;2022-12-24T00:59:43;0.90;;;0.90;;
14300;SDS011;7234;59.306;18.024;2022-12-24T01:02:10;1.03;;;0.83;;
14300;SDS011;7234;59.306;18.024;2022-12-24T01:04:38;1.47;;;1.10;;
14300;SDS011;7234;59.306;18.024;2022-12-24T01:07:38;2.17;;;1.20;;
14300;SDS011;7234;59.306;18.024;2022-12-24T01:10:06;2.47;;;1.13;;
14300;SDS011;7234;59.306;18.024;2022-12-24T01:12:35;1.67;;;1.17;;
14300;SDS011;7234;59.306;18.024;2022-12-24T01:15:03;1.63;;;1.13;;
14300;SDS011;7234;59.306;18.024;2022-12-24T01:17:31;3.17;;;1.03;;
14300;SDS011;7234;59.306;18.024;2022-12-24T01:19:58;1.27;;;0.87;;
14300;SDS011;7234;59.306;18.024;2022-12-24T01:22:26;2.43;;;0.80;;
14300;SDS011;7234;59.306;18.024;2022-12-24T01:24:54;1.43;;;0.90;;
14300;SDS011;7234;59.306;18.024;2022-12-24T01:27:21;1.50;;;0.90;;
14300;SDS011;7234;59.306;18.024;2022-12-24T01:29:50;2.90;;;1.00;;
14300;SDS011;7234;59.306;18.024;2022-12-24T01:32:17;1.20;;;0.77;;
14300;SDS011;7234;59.306;18.024;2022-12-24T01:34:45;1.47;;;0.87;;
14300;SDS011;7234;59.306;18.024;2022-12-24T01:37:12;1.97;;;0.90;;
14300;SDS011;7234;59.306;18.024;2022-12-24T01:39:40;1.80;;;1.00;;
14300;SDS011;7234;59.306;18.024;2022-12-24T01:42:17;1.23;;;1.03;;
14300;SDS011;7234;59.306;18.024;2022-12-24T01:47:50;2.40;;;0.70;;
14300;SDS011;7234;59.306;18.024;2022-12-24T01:50:17;2.10;;;0.97;;
14300;SDS011;7234;59.306;18.024;2022-12-24T01:52:45;1.07;;;0.87;;
14300;SDS011;7234;59.306;18.024;2022-12-24T01:55:13;2.70;;;1.00;;
14300;SDS011;7234;59.306;18.024;2022-12-24T01:57:44;1.67;;;0.77;;
14300;SDS011;7234;59.306;18.024;2022-12-24T02:00:13;0.70;;;0.70;;
14300;SDS011;7234;59.306;18.024;2022-12-24T02:02:42;1.70;;;1.00;;
14300;SDS011;7234;59.306;18.024;2022-12-24T02:05:13;1.10;;;0.73;;
14300;SDS011;7234;59.306;18.024;2022-12-24T02:07:41;1.60;;;0.77;;
14300;SDS011;7234;59.306;18.024;2022-12-24T02:10:09;1.07;;;0.77;;
14300;SDS011;7234;59.306;18.024;2022-12-24T02:12:37;2.83;;;1.30;;
14300;SDS011;7234;59.306;18.024;2022-12-24T02:15:05;1.80;;;0.70;;
14300;SDS011;7234;59.306;18.024;2022-12-24T02:17:34;1.50;;;1.03;;
14300;SDS011;7234;59.306;18.024;2022-12-24T02:20:16;1.63;;;0.70;;
14300;SDS011;7234;59.306;18.024;2022-12-24T02:22:48;2.90;;;1.30;;
14300;SDS011;7234;59.306;18.024;2022-12-24T02:25:23;1.40;;;0.90;;
14300;SDS011;7234;59.306;18.024;2022-12-24T02:27:53;1.13;;;0.93;;
14300;SDS011;7234;59.306;18.024;2022-12-24T02:30:24;3.20;;;0.93;;
14300;SDS011;7234;59.306;18.024;2022-12-24T02:33:03;0.87;;;0.83;;
14300;SDS011;7234;59.306;18.024;2022-12-24T02:35:39;1.23;;;0.80;;
14300;SDS011;7234;59.306;18.024;2022-12-24T02:38:10;1.00;;;0.70;;
14300;SDS011;7234;59.306;18.024;2022-12-24T02:40:42;1.20;;;0.70;;
14300;SDS011;7234;59.306;18.024;2022-12-24T02:43:11;1.30;;;0.90;;
14300;SDS011;7234;59.306;18.024;2022-12-24T02:45:43;1.00;;;0.90;;
14300;SDS011;7234;59.306;18.024;2022-12-24T02:48:12;1.60;;;1.20;;
14300;SDS011;7234;59.306;18.024;2022-12-24T02:50:39;1.60;;;1.20;;
14300;SDS011;7234;59.306;18.024;2022-12-24T02:53:19;2.67;;;0.70;;
14300;SDS011;7234;59.306;18.024;2022-12-24T02:55:50;0.83;;;0.73;;
14300;SDS011;7234;59.306;18.024;2022-12-24T02:58:24;1.00;;;0.80;;
14300;SDS011;7234;59.306;18.024;2022-12-24T03:00:59;2.23;;;0.93;;
14300;SDS011;7234;59.306;18.024;2022-12-24T03:03:42;1.20;;;0.70;;
14300;SDS011;7234;59.306;18.024;2022-12-24T03:06:14;1.23;;;0.90;;
14300;SDS011;7234;59.306;18.024;2022-12-24T03:08:45;1.30;;;0.90;;
14300;SDS011;7234;59.306;18.024;2022-12-24T03:11:15;1.77;;;0.70;;
14300;SDS011;7234;59.306;18.024;2022-12-24T03:13:43;1.80;;;1.00;;
14300;SDS011;7234;59.306;18.024;2022-12-24T03:16:14;1.00;;;0.80;;
14300;SDS011;7234;59.306;18.024;2022-12-24T03:18:43;1.17;;;1.07;;
14300;SDS011;7234;59.306;18.024;2022-12-24T03:21:13;1.00;;;0.90;;
14300;SDS011;7234;59.306;18.024;2022-12-24T03:23:42;1.33;;;0.80;;
14300;SDS011;7234;59.306;18.024;2022-12-24T03:26:10;1.00;;;0.90;;
14300;SDS011;7234;59.306;18.024;2022-12-24T03:28:39;1.60;;;1.10;;
14300;SDS011;7234;59.306;18.024;2022-12-24T03:31:07;1.00;;;0.90;;
14300;SDS011;7234;59.306;18.024;2022-12-24T03:33:36;1.60;;;0.87;;
14300;SDS011;7234;59.306;18.024;2022-12-24T03:36:06;1.40;;;0.83;;
14300;SDS011;7234;59.306;18.024;2022-12-24T03:38:34;0.70;;;0.70;;
14300;SDS011;7234;59.306;18.024;2022-12-24T03:41:01;1.13;;;1.03;;
14300;SDS011;7234;59.306;18.024;2022-12-24T03:43:29;1.87;;;1.10;;
14300;SDS011;7234;59.306;18.024;2022-12-24T03:46:01;1.57;;;0.80;;
14300;SDS011;7234;59.306;18.024;2022-12-24T03:48:29;2.23;;;0.93;;
14300;SDS011;7234;59.306;18.024;2022-12-24T03:50:57;2.23;;;0.80;;
14300;SDS011;7234;59.306;18.024;2022-12-24T03:53:25;1.40;;;0.97;;
14300;SDS011;7234;59.306;18.024;2022-12-24T03:55:52;2.30;;;1.10;;
14300;SDS011;7234;59.306;18.024;2022-12-24T03:58:19;0.80;;;0.63;;
14300;SDS011;7234;59.306;18.024;2022-12-24T04:00:47;1.70;;;1.00;;
14300;SDS011;7234;59.306;18.024;2022-12-24T04:03:14;2.20;;;1.20;;
14300;SDS011;7234;59.306;18.024;2022-12-24T04:05:41;1.17;;;0.93;;
14300;SDS011;7234;59.306;18.024;2022-12-24T04:08:10;1.00;;;0.90;;
14300;SDS011;7234;59.306;18.024;2022-12-24T04:10:37;2.20;;;0.80;;
14300;SDS011;7234;59.306;18.024;2022-12-24T04:13:04;1.30;;;1.00;;
14300;SDS011;7234;59.306;18.024;2022-12-24T04:15:35;1.47;;;1.00;;
14300;SDS011;7234;59.306;18.024;2022-12-24T04:18:02;1.87;;;0.80;;
14300;SDS011;7234;59.306;18.024;2022-12-24T04:20:30;0.70;;;0.67;;
14300;SDS011;7234;59.306;18.024;2022-12-24T04:22:58;2.33;;;0.93;;
14300;SDS011;7234;59.306;18.024;2022-12-24T04:25:27;2.87;;;0.80;;
14300;SDS011;7234;59.306;18.024;2022-12-24T04:27:58;2.53;;;0.70;;
14300;SDS011;7234;59.306;18.024;2022-12-24T04:30:25;2.10;;;0.70;;
14300;SDS011;7234;59.306;18.024;2022-12-24T04:32:53;1.20;;;0.90;;
14300;SDS011;7234;59.306;18.024;2022-12-24T04:35:20;1.30;;;0.70;;
14300;SDS011;7234;59.306;18.024;2022-12-24T04:37:47;1.33;;;1.00;;
14300;SDS011;7234;59.306;18.024;2022-12-24T04:40:14;1.67;;;0.87;;
14300;SDS011;7234;59.306;18.024;2022-12-24T04:42:43;0.80;;;0.77;;
14300;SDS011;7234;59.306;18.024;2022-12-24T04:45:14;0.70;;;0.70;;
14300;SDS011;7234;59.306;18.024;2022-12-24T04:47:41;0.90;;;0.73;;
14300;SDS011;7234;59.306;18.024;2022-12-24T04:50:09;2.50;;;0.90;;
14300;SDS011;7234;59.306;18.024;2022-12-24T04:52:39;2.20;;;0.70;;
14300;SDS011;7234;59.306;18.024;2022-12-24T04:55:07;0.97;;;0.90;;
14300;SDS011;7234;59.306;18.024;2022-12-24T04:57:34;1.27;;;0.83;;
14300;SDS011;7234;59.306;18.024;2022-12-24T05:00:04;1.70;;;0.70;;
14300;SDS011;7234;59.306;18.024;2022-12-24T05:02:32;1.20;;;0.80;;
14300;SDS011;7234;59.306;18.024;2022-12-24T05:04:59;1.40;;;1.07;;
14300;SDS011;7234;59.306;18.024;2022-12-24T05:07:27;1.13;;;0.90;;
14300;SDS011;7234;59.306;18.024;2022-12-24T05:09:57;1.50;;;0.80;;
14300;SDS011;7234;59.306;18.024;2022-12-24T05:12:24;2.17;;;0.70;;
14300;SDS011;7234;59.306;18.024;2022-12-24T05:14:51;3.57;;;0.83;;
14300;SDS011;7234;59.306;18.024;2022-12-24T05:17:20;1.00;;;0.83;;
14300;SDS011;7234;59.306;18.024;2022-12-24T05:19:48;1.33;;;0.80;;
14300;SDS011;7234;59.306;18.024;2022-12-24T05:22:15;1.00;;;0.80;;
14300;SDS011;7234;59.306;18.024;2022-12-24T05:25:03;1.70;;;0.70;;
14300;SDS011;7234;59.306;18.024;2022-12-24T05:27:48;1.50;;;0.90;;
14300;SDS011;7234;59.306;18.024;2022-12-24T05:30:17;1.40;;;0.80;;
14300;SDS011;7234;59.306;18.024;2022-12-24T05:32:45;1.00;;;0.80;;
14300;SDS011;7234;59.306;18.024;2022-12-24T05:35:14;1.10;;;1.00;;
14300;SDS011;7234;59.306;18.024;2022-12-24T05:37:41;1.10;;;1.00;;
14300;SDS011;7234;59.306;18.024;2022-12-24T05:40:09;2.73;;;0.80;;
14300;SDS011;7234;59.306;18.024;2022-12-24T05:42:36;1.20;;;0.90;;
14300;SDS011;7234;59.306;18.024;2022-12-24T05:45:04;2.43;;;1.03;;
14300;SDS011;7234;59.306;18.024;2022-12-24T05:47:31;0.70;;;0.70;;
14300;SDS011;7234;59.306;18.024;2022-12-24T05:50:00;3.67;;;1.00;;
14300;SDS011;7234;59.306;18.024;2022-12-24T05:52:27;2.57;;;0.87;;
14300;SDS011;7234;59.306;18.024;2022-12-24T05:54:55;1.27;;;0.90;;
14300;SDS011;7234;59.306;18.024;2022-12-24T05:57:22;1.40;;;0.70;;
14300;SDS011;7234;59.306;18.024;2022-12-24T05:59:49;2.90;;;0.80;;
14300;SDS011;7234;59.306;18.024;2022-12-24T06:02:17;3.47;;;1.00;;
14300;SDS011;7234;59.306;18.024;2022-12-24T06:04:44;0.87;;;0.83;;
14300;SDS011;7234;59.306;18.024;2022-12-24T06:07:13;1.50;;;1.00;;
14300;SDS011;7234;59.306;18.024;2022-12-24T06:09:40;1.10;;;0.90;;
14300;SDS011;7234;59.306;18.024;2022-12-24T06:12:07;1.23;;;0.90;;
14300;SDS011;7234;59.306;18.024;2022-12-24T06:14:35;0.97;;;0.73;;
14300;SDS011;7234;59.306;18.024;2022-12-24T06:17:05;1.63;;;1.27;;
14300;SDS011;7234;59.306;18.024;2022-12-24T06:19:32;1.20;;;1.00;;
14300;SDS011;7234;59.306;18.024;2022-12-24T06:21:59;1.60;;;1.17;;
14300;SDS011;7234;59.306;18.024;2022-12-24T06:24:31;4.03;;;1.13;;
14300;SDS011;7234;59.306;18.024;2022-12-24T06:26:58;2.23;;;0.70;;
14300;SDS011;7234;59.306;18.024;2022-12-24T06:29:25;0.97;;;0.80;;
14300;SDS011;7234;59.306;18.024;2022-12-24T06:31:53;1.40;;;1.10;;
14300;SDS011;7234;59.306;18.024;2022-12-24T06:34:20;2.73;;;0.97;;
14300;SDS011;7234;59.306;18.024;2022-12-24T06:36:47;1.03;;;0.93;;
14300;SDS011;7234;59.306;18.024;2022-12-24T06:39:15;1.30;;;0.97;;
14300;SDS011;7234;59.306;18.024;2022-12-24T06:41:43;2.03;;;1.00;;
14300;SDS011;7234;59.306;18.024;2022-12-24T06:44:11;1.83;;;0.90;;
14300;SDS011;7234;59.306;18.024;2022-12-24T06:46:38;1.67;;;0.97;;
14300;SDS011;7234;59.306;18.024;2022-12-24T06:49:05;1.10;;;0.90;;
14300;SDS011;7234;59.306;18.024;2022-12-24T06:51:33;1.03;;;0.80;;
14300;SDS011;7234;59.306;18.024;2022-12-24T06:54:00;2.33;;;1.03;;
14300;SDS011;7234;59.306;18.024;2022-12-24T06:56:29;0.60;;;0.60;;
14300;SDS011;7234;59.306;18.024;2022-12-24T06:59:03;1.10;;;0.93;;
14300;SDS011;7234;59.306;18.024;2022-12-24T07:01:30;3.83;;;0.97;;
14300;SDS011;7234;59.306;18.024;2022-12-24T07:03:58;1.23;;;0.93;;
14300;SDS011;7234;59.306;18.024;2022-12-24T07:06:34;2.67;;;1.20;;
14300;SDS011;7234;59.306;18.024;2022-12-24T07:09:08;1.07;;;0.90;;
14300;SDS011;7234;59.306;18.024;2022-12-24T07:11:39;1.37;;;1.00;;
14300;SDS011;7234;59.306;18.024;2022-12-24T07:14:08;2.90;;;1.10;;
14300;SDS011;7234;59.306;18.024;2022-12-24T07:16:35;1.23;;;1.07;;
14300;SDS011;7234;59.306;18.024;2022-12-24T07:19:03;3.23;;;1.40;;
14300;SDS011;7234;59.306;18.024;2022-12-24T07:21:30;1.73;;;1.37;;
14300;SDS011;7234;59.306;18.024;2022-12-24T07:23:57;1.63;;;1.10;;
14300;SDS011;7234;59.306;18.024;2022-12-24T07:26:31;1.67;;;1.00;;
14300;SDS011;7234;59.306;18.024;2022-12-24T07:28:59;1.70;;;1.50;;
14300;SDS011;7234;59.306;18.024;2022-12-24T07:31:31;1.40;;;1.07;;
14300;SDS011;7234;59.306;18.024;2022-12-24T07:33:59;3.10;;;1.10;;
14300;SDS011;7234;59.306;18.024;2022-12-24T07:36:27;1.50;;;1.20;;
14300;SDS011;7234;59.306;18.024;2022-12-24T07:39:00;2.50;;;1.20;;
14300;SDS011;7234;59.306;18.024;2022-12-24T07:41:27;1.73;;;1.20;;
14300;SDS011;7234;59.306;18.024;2022-12-24T07:43:58;1.57;;;1.20;;
14300;SDS011;7234;59.306;18.024;2022-12-24T07:46:25;2.83;;;1.30;;
14300;SDS011;7234;59.306;18.024;2022-12-24T07:48:54;2.07;;;1.20;;
14300;SDS011;7234;59.306;18.024;2022-12-24T07:51:22;1.20;;;1.10;;
14300;SDS011;7234;59.306;18.024;2022-12-24T07:53:49;1.00;;;0.90;;
14300;SDS011;7234;59.306;18.024;2022-12-24T07:56:16;2.07;;;1.20;;
14300;SDS011;7234;59.306;18.024;2022-12-24T07:58:44;1.43;;;1.30;;
14300;SDS011;7234;59.306;18.024;2022-12-24T08:01:12;2.27;;;1.37;;
14300;SDS011;7234;59.306;18.024;2022-12-24T08:03:39;2.30;;;1.20;;
14300;SDS011;7234;59.306;18.024;2022-12-24T08:06:08;2.30;;;1.30;;
14300;SDS011;7234;59.306;18.024;2022-12-24T08:08:36;1.97;;;1.10;;
14300;SDS011;7234;59.306;18.024;2022-12-24T08:11:04;2.73;;;1.53;;
14300;SDS011;7234;59.306;18.024;2022-12-24T08:13:32;3.03;;;1.43;;
14300;SDS011;7234;59.306;18.024;2022-12-24T08:15:59;2.47;;;1.17;;
14300;SDS011;7234;59.306;18.024;2022-12-24T08:18:27;2.07;;;1.30;;
14300;SDS011;7234;59.306;18.024;2022-12-24T08:20:54;5.87;;;1.90;;
14300;SDS011;7234;59.306;18.024;2022-12-24T08:23:23;7.57;;;3.27;;
14300;SDS011;7234;59.306;18.024;2022-12-24T08:25:50;13.60;;;5.87;;
14300;SDS011;7234;59.306;18.024;2022-12-24T08:28:18;10.60;;;3.87;;
14300;SDS011;7234;59.306;18.024;2022-12-24T08:30:46;3.90;;;2.47;;
14300;SDS011;7234;59.306;18.024;2022-12-24T08:33:14;2.20;;;1.53;;
14300;SDS011;7234;59.306;18.024;2022-12-24T08:35:45;3.27;;;1.87;;
14300;SDS011;7234;59.306;18.024;2022-12-24T08:38:14;2.07;;;1.40;;
14300;SDS011;7234;59.306;18.024;2022-12-24T08:40:42;4.53;;;1.73;;
14300;SDS011;7234;59.306;18.024;2022-12-24T08:43:11;3.87;;;1.87;;
14300;SDS011;7234;59.306;18.024;2022-12-24T08:45:38;5.50;;;1.90;;
14300;SDS011;7234;59.306;18.024;2022-12-24T08:48:06;2.97;;;1.40;;
14300;SDS011;7234;59.306;18.024;2022-12-24T08:50:33;2.13;;;1.40;;
14300;SDS011;7234;59.306;18.024;2022-12-24T08:53:01;4.33;;;1.60;;
14300;SDS011;7234;59.306;18.024;2022-12-24T08:55:31;2.57;;;1.67;;
14300;SDS011;7234;59.306;18.024;2022-12-24T08:58:02;3.80;;;1.60;;
14300;SDS011;7234;59.306;18.024;2022-12-24T09:00:30;2.57;;;1.60;;
14300;SDS011;7234;59.306;18.024;2022-12-24T09:02:57;2.23;;;1.40;;
14300;SDS011;7234;59.306;18.024;2022-12-24T09:05:24;4.47;;;1.50;;
14300;SDS011;7234;59.306;18.024;2022-12-24T09:07:53;7.93;;;1.50;;
14300;SDS011;7234;59.306;18.024;2022-12-24T09:10:20;1.67;;;1.50;;
14300;SDS011;7234;59.306;18.024;2022-12-24T09:12:48;3.60;;;1.60;;
14300;SDS011;7234;59.306;18.024;2022-12-24T09:15:17;1.23;;;1.10;;
14300;SDS011;7234;59.306;18.024;2022-12-24T09:17:44;2.50;;;1.60;;
14300;SDS011;7234;59.306;18.024;2022-12-24T09:20:12;5.23;;;1.80;;
14300;SDS011;7234;59.306;18.024;2022-12-24T09:22:40;2.97;;;1.70;;
14300;SDS011;7234;59.306;18.024;2022-12-24T09:25:07;1.60;;;1.30;;
14300;SDS011;7234;59.306;18.024;2022-12-24T09:27:35;2.80;;;1.20;;
14300;SDS011;7234;59.306;18.024;2022-12-24T09:30:03;2.97;;;1.70;;
14300;SDS011;7234;59.306;18.024;2022-12-24T09:32:33;2.43;;;1.60;;
14300;SDS011;7234;59.306;18.024;2022-12-24T09:35:00;1.70;;;1.40;;
14300;SDS011;7234;59.306;18.024;2022-12-24T09:37:28;2.07;;;1.23;;
14300;SDS011;7234;59.306;18.024;2022-12-24T09:39:55;1.47;;;1.20;;
14300;SDS011;7234;59.306;18.024;2022-12-24T09:42:25;6.80;;;1.80;;
14300;SDS011;7234;59.306;18.024;2022-12-24T09:45:00;3.73;;;1.80;;
14300;SDS011;7234;59.306;18.024;2022-12-24T09:47:33;2.50;;;1.50;;
14300;SDS011;7234;59.306;18.024;2022-12-24T09:50:02;4.23;;;1.87;;
14300;SDS011;7234;59.306;18.024;2022-12-24T09:52:32;2.00;;;1.47;;
14300;SDS011;7234;59.306;18.024;2022-12-24T09:55:02;2.67;;;1.33;;
14300;SDS011;7234;59.306;18.024;2022-12-24T09:57:33;2.07;;;1.50;;
14300;SDS011;7234;59.306;18.024;2022-12-24T10:00:02;2.40;;;1.60;;
14300;SDS011;7234;59.306;18.024;2022-12-24T10:02:31;2.73;;;1.23;;
14300;SDS011;7234;59.306;18.024;2022-12-24T10:04:59;1.67;;;1.27;;
14300;SDS011;7234;59.306;18.024;2022-12-24T10:07:32;2.00;;;1.27;;
14300;SDS011;7234;59.306;18.024;2022-12-24T10:10:06;1.97;;;1.40;;
14300;SDS011;7234;59.306;18.024;2022-12-24T10:12:40;1.53;;;1.20;;
14300;SDS011;7234;59.306;18.024;2022-12-24T10:15:13;2.50;;;1.40;;
14300;SDS011;7234;59.306;18.024;2022-12-24T10:17:48;2.63;;;1.47;;
14300;SDS011;7234;59.306;18.024;2022-12-24T10:20:26;1.67;;;1.20;;
14300;SDS011;7234;59.306;18.024;2022-12-24T10:22:58;2.03;;;1.70;;
14300;SDS011;7234;59.306;18.024;2022-12-24T10:25:28;3.10;;;1.73;;
14300;SDS011;7234;59.306;18.024;2022-12-24T10:27:57;3.13;;;1.23;;
14300;SDS011;7234;59.306;18.024;2022-12-24T10:30:26;1.63;;;1.20;;
14300;SDS011;7234;59.306;18.024;2022-12-24T10:33:06;3.20;;;1.53;;
14300;SDS011;7234;59.306;18.024;2022-12-24T10:35:38;1.67;;;1.23;;
14300;SDS011;7234;59.306;18.024;2022-12-24T10:38:10;3.80;;;1.30;;
14300;SDS011;7234;59.306;18.024;2022-12-24T10:40:41;1.47;;;1.03;;
14300;SDS011;7234;59.306;18.024;2022-12-24T10:43:11;2.50;;;1.00;;
14300;SDS011;7234;59.306;18.024;2022-12-24T10:45:43;2.80;;;1.13;;
14300;SDS011;7234;59.306;18.024;2022-12-24T10:48:15;1.60;;;1.30;;
14300;SDS011;7234;59.306;18.024;2022-12-24T10:50:47;2.43;;;1.27;;
14300;SDS011;7234;59.306;18.024;2022-12-24T10:53:18;1.50;;;1.20;;
14300;SDS011;7234;59.306;18.024;2022-12-24T10:55:47;1.83;;;1.40;;
14300;SDS011;7234;59.306;18.024;2022-12-24T10:58:16;2.87;;;1.40;;
14300;SDS011;7234;59.306;18.024;2022-12-24T11:00:48;2.07;;;1.37;;
14300;SDS011;7234;59.306;18.024;2022-12-24T11:03:22;3.33;;;1.30;;
14300;SDS011;7234;59.306;18.024;2022-12-24T11:05:58;2.60;;;1.50;;
14300;SDS011;7234;59.306;18.024;2022-12-24T11:08:25;1.97;;;1.37;;
14300;SDS011;7234;59.306;18.024;2022-12-24T11:10:53;2.53;;;1.40;;
14300;SDS011;7234;59.306;18.024;2022-12-24T11:13:21;3.33;;;1.70;;
14300;SDS011;7234;59.306;18.024;2022-12-24T11:15:50;1.93;;;1.30;;
14300;SDS011;7234;59.306;18.024;2022-12-24T11:18:17;4.13;;;2.30;;
14300;SDS011;7234;59.306;18.024;2022-12-24T11:20:50;4.77;;;1.90;;
14300;SDS011;7234;59.306;18.024;2022-12-24T11:23:18;2.73;;;1.70;;
14300;SDS011;7234;59.306;18.024;2022-12-24T11:25:46;1.50;;;1.20;;
14300;SDS011;7234;59.306;18.024;2022-12-24T11:28:18;2.07;;;1.57;;
14300;SDS011;7234;59.306;18.024;2022-12-24T11:30:57;2.60;;;1.40;;
14300;SDS011;7234;59.306;18.024;2022-12-24T11:33:26;2.03;;;1.60;;
14300;SDS011;7234;59.306;18.024;2022-12-24T11:36:01;3.37;;;1.47;;
14300;SDS011;7234;59.306;18.024;2022-12-24T11:38:29;3.00;;;1.30;;
14300;SDS011;7234;59.306;18.024;2022-12-24T11:41:01;2.97;;;1.87;;
14300;SDS011;7234;59.306;18.024;2022-12-24T11:43:34;2.77;;;1.50;;
14300;SDS011;7234;59.306;18.024;2022-12-24T11:46:17;3.50;;;1.63;;
14300;SDS011;7234;59.306;18.024;2022-12-24T11:48:47;1.90;;;1.30;;
14300;SDS011;7234;59.306;18.024;2022-12-24T11:51:21;2.63;;;1.50;;
14300;SDS011;7234;59.306;18.024;2022-12-24T11:53:49;3.93;;;1.67;;
14300;SDS011;7234;59.306;18.024;2022-12-24T11:56:23;2.03;;;1.40;;
14300;SDS011;7234;59.306;18.024;2022-12-24T11:58:52;2.53;;;1.53;;
14300;SDS011;7234;59.306;18.024;2022-12-24T12:01:22;2.93;;;1.63;;
14300;SDS011;7234;59.306;18.024;2022-12-24T12:03:51;2.40;;;1.60;;
14300;SDS011;7234;59.306;18.024;2022-12-24T12:06:30;4.63;;;1.60;;
14300;SDS011;7234;59.306;18.024;2022-12-24T12:09:00;2.50;;;1.63;;
14300;SDS011;7234;59.306;18.024;2022-12-24T12:11:28;3.17;;;1.67;;
14300;SDS011;7234;59.306;18.024;2022-12-24T12:13:57;2.87;;;1.60;;
14300;SDS011;7234;59.306;18.024;2022-12-24T12:16:27;1.33;;;1.23;;
14300;SDS011;7234;59.306;18.024;2022-12-24T12:19:15;2.33;;;1.70;;
14300;SDS011;7234;59.306;18.024;2022-12-24T12:21:45;2.43;;;1.60;;
14300;SDS011;7234;59.306;18.024;2022-12-24T12:24:15;1.77;;;1.50;;
14300;SDS011;7234;59.306;18.024;2022-12-24T12:26:45;2.17;;;1.77;;
14300;SDS011;7234;59.306;18.024;2022-12-24T12:29:17;3.37;;;2.70;;
14300;SDS011;7234;59.306;18.024;2022-12-24T12:31:50;3.97;;;2.50;;
14300;SDS011;7234;59.306;18.024;2022-12-24T12:34:19;3.20;;;2.40;;
14300;SDS011;7234;59.306;18.024;2022-12-24T12:36:50;6.33;;;2.57;;
14300;SDS011;7234;59.306;18.024;2022-12-24T12:39:19;5.30;;;2.70;;
14300;SDS011;7234;59.306;18.024;2022-12-24T12:41:49;3.77;;;2.27;;
14300;SDS011;7234;59.306;18.024;2022-12-24T12:44:34;5.87;;;1.60;;
14300;SDS011;7234;59.306;18.024;2022-12-24T12:47:20;2.87;;;1.70;;
14300;SDS011;7234;59.306;18.024;2022-12-24T12:49:52;2.63;;;2.10;;
14300;SDS011;7234;59.306;18.024;2022-12-24T12:52:27;4.83;;;2.47;;
14300;SDS011;7234;59.306;18.024;2022-12-24T12:55:04;3.10;;;2.10;;
14300;SDS011;7234;59.306;18.024;2022-12-24T12:57:33;2.87;;;2.20;;
14300;SDS011;7234;59.306;18.024;2022-12-24T13:00:04;2.77;;;2.20;;
14300;SDS011;7234;59.306;18.024;2022-12-24T13:02:50;2.77;;;2.20;;
14300;SDS011;7234;59.306;18.024;2022-12-24T13:08:17;3.50;;;1.87;;
14300;SDS011;7234;59.306;18.024;2022-12-24T13:10:51;2.57;;;1.43;;
14300;SDS011;7234;59.306;18.024;2022-12-24T13:13:32;2.37;;;1.80;;
14300;SDS011;7234;59.306;18.024;2022-12-24T13:16:06;1.87;;;1.50;;
14300;SDS011;7234;59.306;18.024;2022-12-24T13:18:41;1.77;;;1.53;;
14300;SDS011;7234;59.306;18.024;2022-12-24T13:21:15;5.57;;;2.20;;
14300;SDS011;7234;59.306;18.024;2022-12-24T13:23:44;2.47;;;1.53;;
14300;SDS011;7234;59.306;18.024;2022-12-24T13:26:12;2.57;;;1.73;;
14300;SDS011;7234;59.306;18.024;2022-12-24T13:28:40;6.90;;;2.10;;
14300;SDS011;7234;59.306;18.024;2022-12-24T13:31:24;4.07;;;1.53;;
14300;SDS011;7234;59.306;18.024;2022-12-24T13:33:54;2.83;;;1.53;;
14300;SDS011;7234;59.306;18.024;2022-12-24T13:36:21;3.10;;;1.73;;
14300;SDS011;7234;59.306;18.024;2022-12-24T13:38:50;4.30;;;1.60;;
14300;SDS011;7234;59.306;18.024;2022-12-24T13:44:23;3.17;;;1.93;;
14300;SDS011;7234;59.306;18.024;2022-12-24T13:47:03;3.63;;;2.23;;
14300;SDS011;7234;59.306;18.024;2022-12-24T13:49:33;3.23;;;1.80;;
14300;SDS011;7234;59.306;18.024;2022-12-24T13:52:16;2.83;;;1.60;;
14300;SDS011;7234;59.306;18.024;2022-12-24T13:54:46;4.10;;;2.00;;
14300;SDS011;7234;59.306;18.024;2022-12-24T13:57:29;5.97;;;3.63;;
14300;SDS011;7234;59.306;18.024;2022-12-24T14:00:05;5.67;;;3.80;;
14300;SDS011;7234;59.306;18.024;2022-12-24T14:02:34;10.53;;;4.30;;
14300;SDS011;7234;59.306;18.024;2022-12-24T14:05:04;10.83;;;5.60;;
14300;SDS011;7234;59.306;18.024;2022-12-24T14:07:34;7.93;;;4.80;;
14300;SDS011;7234;59.306;18.024;2022-12-24T14:10:17;8.37;;;5.07;;
14300;SDS011;7234;59.306;18.024;2022-12-24T14:12:46;11.70;;;5.73;;
14300;SDS011;7234;59.306;18.024;2022-12-24T14:18:01;8.83;;;4.77;;
14300;SDS011;7234;59.306;18.024;2022-12-24T14:20:31;9.47;;;4.90;;
14300;SDS011;7234;59.306;18.024;2022-12-24T14:22:58;7.87;;;4.00;;
14300;SDS011;7234;59.306;18.024;2022-12-24T14:25:27;5.77;;;3.60;;
14300;SDS011;7234;59.306;18.024;2022-12-24T14:27:57;7.57;;;3.57;;
14300;SDS011;7234;59.306;18.024;2022-12-24T14:30:26;7.87;;;4.80;;
14300;SDS011;7234;59.306;18.024;2022-12-24T14:33:00;6.60;;;4.57;;
14300;SDS011;7234;59.306;18.024;2022-12-24T14:35:37;5.13;;;3.43;;
14300;SDS011;7234;59.306;18.024;2022-12-24T14:38:06;6.03;;;3.80;;
14300;SDS011;7234;59.306;18.024;2022-12-24T14:40:36;9.23;;;3.87;;
14300;SDS011;7234;59.306;18.024;2022-12-24T14:43:11;7.00;;;4.10;;
14300;SDS011;7234;59.306;18.024;2022-12-24T14:45:45;9.27;;;4.83;;
14300;SDS011;7234;59.306;18.024;2022-12-24T14:48:16;9.13;;;4.83;;
14300;SDS011;7234;59.306;18.024;2022-12-24T14:50:50;8.40;;;4.90;;
14300;SDS011;7234;59.306;18.024;2022-12-24T14:53:27;9.00;;;4.67;;
14300;SDS011;7234;59.306;18.024;2022-12-24T14:56:09;7.67;;;4.03;;
14300;SDS011;7234;59.306;18.024;2022-12-24T14:58:39;8.07;;;4.30;;
14300;SDS011;7234;59.306;18.024;2022-12-24T15:04:00;5.83;;;3.97;;
14300;SDS011;7234;59.306;18.024;2022-12-24T15:06:27;9.53;;;5.10;;
14300;SDS011;7234;59.306;18.024;2022-12-24T15:08:55;10.63;;;5.60;;
14300;SDS011;7234;59.306;18.024;2022-12-24T15:11:24;7.40;;;4.73;;
14300;SDS011;7234;59.306;18.024;2022-12-24T15:13:52;11.40;;;6.00;;
14300;SDS011;7234;59.306;18.024;2022-12-24T15:16:21;11.40;;;6.00;;
14300;SDS011;7234;59.306;18.024;2022-12-24T15:18:50;11.20;;;6.40;;